createdAt,value
2017-05-07T00:00:26.069Z,996.01
2017-05-07T00:01:26.106Z,996
2017-05-07T00:02:26.140Z,995.99
2017-05-07T00:03:26.176Z,995.97
2017-05-07T00:04:26.217Z,995.97
2017-05-07T00:05:26.254Z,995.96
2017-05-07T00:06:26.286Z,995.97
2017-05-07T00:07:26.326Z,996
2017-05-07T00:08:26.362Z,995.97
2017-05-07T00:09:26.400Z,995.94
2017-05-07T00:10:26.434Z,995.98
2017-05-07T00:11:26.468Z,995.95
2017-05-07T00:12:26.507Z,995.98
2017-05-07T00:13:26.545Z,995.98
2017-05-07T00:14:26.578Z,995.97
2017-05-07T00:15:26.614Z,996
2017-05-07T00:16:26.653Z,995.96
2017-05-07T00:17:26.688Z,995.95
2017-05-07T00:18:26.727Z,995.92
2017-05-07T00:19:26.759Z,995.92
2017-05-07T00:20:26.799Z,995.94
2017-05-07T00:21:26.835Z,995.93
2017-05-07T00:22:26.873Z,995.97
2017-05-07T00:23:26.908Z,995.97
2017-05-07T00:24:26.944Z,995.96
2017-05-07T00:25:26.978Z,996
2017-05-07T00:26:27.018Z,995.97
2017-05-07T00:27:27.053Z,996.02
2017-05-07T00:28:27.088Z,996.02
2017-05-07T00:29:27.127Z,996.04
2017-05-07T00:30:27.159Z,996.05
2017-05-07T00:31:27.196Z,996.06
2017-05-07T00:32:27.237Z,996.07
2017-05-07T00:33:27.270Z,996.12
2017-05-07T00:34:27.308Z,996.06
2017-05-07T00:35:27.343Z,996.05
2017-05-07T00:36:27.378Z,996.06
2017-05-07T00:37:27.418Z,996.04
2017-05-07T00:38:27.455Z,996.05
2017-05-07T00:39:27.490Z,996.04
2017-05-07T00:40:27.528Z,995.99
2017-05-07T00:41:27.562Z,996.02
2017-05-07T00:42:27.596Z,995.98
2017-05-07T00:43:27.636Z,996.02
2017-05-07T00:44:27.672Z,995.99
2017-05-07T00:45:27.705Z,995.99
2017-05-07T00:46:27.745Z,996.03
2017-05-07T00:47:27.782Z,995.99
2017-05-07T00:48:27.815Z,996.01
2017-05-07T00:49:27.850Z,996.01
2017-05-07T00:50:27.890Z,995.95
2017-05-07T00:51:27.924Z,995.98
2017-05-07T00:52:27.959Z,995.97
2017-05-07T00:53:27.999Z,995.99
2017-05-07T00:54:28.033Z,995.99
2017-05-07T00:55:28.068Z,995.97
2017-05-07T00:56:28.108Z,996.01
2017-05-07T00:57:28.145Z,995.99
2017-05-07T00:58:28.178Z,996.01
2017-05-07T00:59:28.251Z,995.98
2017-05-07T01:00:28.252Z,995.96
2017-05-07T01:01:28.291Z,995.99
2017-05-07T01:02:28.324Z,996.01
2017-05-07T01:03:28.361Z,995.96
2017-05-07T01:04:28.396Z,996.03
2017-05-07T01:05:28.438Z,996.01
2017-05-07T01:06:28.474Z,995.98
2017-05-07T01:07:28.505Z,996.02
2017-05-07T01:08:28.543Z,996.02
2017-05-07T01:09:28.582Z,995.98
2017-05-07T01:10:28.618Z,996.03
2017-05-07T01:11:28.655Z,996.02
2017-05-07T01:12:28.688Z,995.99
2017-05-07T01:13:28.725Z,995.97
2017-05-07T01:14:28.763Z,996.01
2017-05-07T01:15:28.797Z,995.97
2017-05-07T01:16:28.837Z,995.98
2017-05-07T01:17:28.870Z,995.96
2017-05-07T01:18:28.906Z,995.99
2017-05-07T01:19:28.946Z,996.01
2017-05-07T01:20:28.979Z,996.01
2017-05-07T01:21:29.019Z,995.99
2017-05-07T01:22:29.052Z,996.04
2017-05-07T01:23:29.091Z,996.01
2017-05-07T01:24:29.129Z,996.08
2017-05-07T01:25:29.164Z,996.05
2017-05-07T01:26:29.198Z,996.07
2017-05-07T01:27:29.239Z,996.06
2017-05-07T01:28:29.270Z,996.12
2017-05-07T01:29:29.306Z,996.11
2017-05-07T01:30:29.346Z,996.1
2017-05-07T01:31:29.382Z,996.13
2017-05-07T01:32:29.415Z,996.09
2017-05-07T01:33:29.453Z,996.11
2017-05-07T01:34:29.489Z,996.1
2017-05-07T01:35:29.525Z,996.05
2017-05-07T01:36:29.564Z,996.06
2017-05-07T01:37:29.597Z,996.04
2017-05-07T01:38:29.636Z,996.03
2017-05-07T01:39:29.671Z,996.01
2017-05-07T01:40:29.705Z,996
2017-05-07T01:41:29.743Z,995.98
2017-05-07T01:42:29.779Z,996
2017-05-07T01:43:29.814Z,996.04
2017-05-07T01:44:29.851Z,995.97
2017-05-07T01:45:29.891Z,996.01
2017-05-07T01:46:29.928Z,996.03
2017-05-07T01:47:29.962Z,996.01
2017-05-07T01:48:29.995Z,996.03
2017-05-07T01:49:30.033Z,996.03
2017-05-07T01:50:30.073Z,996.05
2017-05-07T01:51:30.108Z,996.04
2017-05-07T01:52:30.141Z,996.04
2017-05-07T01:53:30.177Z,996.01
2017-05-07T01:54:30.216Z,996.03
2017-05-07T01:55:30.249Z,996.03
2017-05-07T01:56:30.286Z,996.02
2017-05-07T01:57:30.327Z,996
2017-05-07T01:58:30.361Z,995.99
2017-05-07T01:59:30.395Z,996.01
2017-05-07T02:00:30.434Z,996.03
2017-05-07T02:01:30.467Z,996.01
2017-05-07T02:02:30.505Z,996.02
2017-05-07T02:03:30.539Z,996.04
2017-05-07T02:04:30.579Z,996.03
2017-05-07T02:05:30.611Z,996.03
2017-05-07T02:06:30.651Z,996.02
2017-05-07T02:07:30.684Z,996.03
2017-05-07T02:08:30.725Z,996.01
2017-05-07T02:09:30.757Z,996.01
2017-05-07T02:10:30.796Z,996.01
2017-05-07T02:11:30.833Z,996
2017-05-07T02:12:30.866Z,995.99
2017-05-07T02:13:30.902Z,996
2017-05-07T02:14:30.941Z,996.04
2017-05-07T02:15:30.974Z,996.03
2017-05-07T02:16:31.014Z,996.03
2017-05-07T02:17:31.046Z,996.06
2017-05-07T02:18:31.086Z,996.04
2017-05-07T02:19:31.119Z,996.07
2017-05-07T02:20:31.158Z,996.09
2017-05-07T02:21:31.194Z,996.08
2017-05-07T02:22:31.230Z,996.07
2017-05-07T02:23:31.268Z,996.08
2017-05-07T02:24:31.301Z,996.06
2017-05-07T02:25:31.340Z,996.05
2017-05-07T02:26:31.376Z,996.09
2017-05-07T02:27:31.408Z,996.08
2017-05-07T02:28:31.448Z,996.16
2017-05-07T02:29:31.481Z,996.14
2017-05-07T02:30:31.521Z,996.14
2017-05-07T02:31:31.553Z,996.14
2017-05-07T02:32:31.592Z,996.11
2017-05-07T02:33:31.626Z,996.13
2017-05-07T02:34:31.666Z,996.1
2017-05-07T02:35:31.701Z,996.1
2017-05-07T02:36:31.734Z,996.15
2017-05-07T02:37:31.775Z,996.15
2017-05-07T02:38:31.807Z,996.13
2017-05-07T02:39:31.846Z,996.18
2017-05-07T02:40:31.882Z,996.16
2017-05-07T02:41:31.919Z,996.15
2017-05-07T02:42:31.955Z,996.14
2017-05-07T02:43:31.987Z,996.15
2017-05-07T02:44:32.028Z,996.11
2017-05-07T02:45:32.065Z,996.09
2017-05-07T02:46:32.097Z,996.09
2017-05-07T02:47:32.133Z,996.1
2017-05-07T02:48:32.172Z,996.11
2017-05-07T02:49:32.208Z,996.1
2017-05-07T02:50:32.241Z,996.1
2017-05-07T02:51:32.277Z,996.09
2017-05-07T02:52:32.318Z,996.06
2017-05-07T02:53:32.353Z,996.08
2017-05-07T02:54:32.386Z,996.06
2017-05-07T02:55:32.422Z,996.08
2017-05-07T02:56:32.462Z,996.06
2017-05-07T02:57:32.497Z,996.09
2017-05-07T02:58:32.531Z,996.07
2017-05-07T02:59:32.571Z,996.12
2017-05-07T03:00:32.602Z,996.08
2017-05-07T03:01:32.640Z,996.11
2017-05-07T03:02:32.679Z,996.1
2017-05-07T03:03:32.712Z,996.15
2017-05-07T03:04:32.748Z,996.12
2017-05-07T03:05:32.787Z,996.14
2017-05-07T03:06:32.822Z,996.09
2017-05-07T03:07:32.861Z,996.15
2017-05-07T03:08:32.896Z,996.13
2017-05-07T03:09:32.931Z,996.16
2017-05-07T03:10:32.966Z,996.17
2017-05-07T03:11:33.002Z,996.21
2017-05-07T03:12:33.038Z,996.23
2017-05-07T03:13:33.078Z,996.23
2017-05-07T03:14:33.113Z,996.22
2017-05-07T03:15:33.149Z,996.21
2017-05-07T03:16:33.184Z,996.24
2017-05-07T03:17:33.220Z,996.22
2017-05-07T03:18:33.259Z,996.23
2017-05-07T03:19:33.292Z,996.25
2017-05-07T03:20:33.328Z,996.25
2017-05-07T03:21:33.367Z,996.26
2017-05-07T03:22:33.402Z,996.28
2017-05-07T03:23:33.436Z,996.27
2017-05-07T03:24:33.472Z,996.27
2017-05-07T03:25:33.513Z,996.3
2017-05-07T03:26:33.544Z,996.32
2017-05-07T03:27:33.580Z,996.36
2017-05-07T03:28:33.621Z,996.39
2017-05-07T03:29:33.655Z,996.36
2017-05-07T03:30:33.692Z,996.37
2017-05-07T03:31:33.725Z,996.36
2017-05-07T03:32:33.765Z,996.37
2017-05-07T03:33:33.800Z,996.34
2017-05-07T03:34:33.834Z,996.35
2017-05-07T03:35:33.870Z,996.34
2017-05-07T03:36:33.911Z,996.32
2017-05-07T03:37:33.947Z,996.28
2017-05-07T03:38:33.982Z,996.3
2017-05-07T03:39:34.017Z,996.24
2017-05-07T03:40:34.054Z,996.21
2017-05-07T03:41:34.089Z,996.23
2017-05-07T03:42:34.123Z,996.19
2017-05-07T03:43:34.160Z,996.25
2017-05-07T03:44:34.196Z,996.24
2017-05-07T03:45:34.235Z,996.21
2017-05-07T03:46:34.272Z,996.21
2017-05-07T03:47:34.308Z,996.26
2017-05-07T03:48:34.340Z,996.29
2017-05-07T03:49:34.377Z,996.27
2017-05-07T03:50:34.417Z,996.28
2017-05-07T03:51:34.453Z,996.25
2017-05-07T03:52:34.485Z,996.23
2017-05-07T03:53:34.523Z,996.23
2017-05-07T03:54:34.562Z,996.23
2017-05-07T03:55:34.598Z,996.26
2017-05-07T03:56:34.631Z,996.24
2017-05-07T03:57:34.671Z,996.21
2017-05-07T03:58:34.706Z,996.22
2017-05-07T03:59:34.739Z,996.24
2017-05-07T04:00:34.779Z,996.2
2017-05-07T04:01:34.812Z,996.22
2017-05-07T04:02:34.851Z,996.17
2017-05-07T04:03:34.888Z,996.19
2017-05-07T04:04:34.922Z,996.16
2017-05-07T04:05:34.958Z,996.21
2017-05-07T04:06:34.998Z,996.16
2017-05-07T04:07:35.031Z,996.13
2017-05-07T04:08:35.066Z,996.15
2017-05-07T04:09:35.107Z,996.15
2017-05-07T04:10:35.139Z,996.14
2017-05-07T04:11:35.179Z,996.17
2017-05-07T04:12:35.216Z,996.19
2017-05-07T04:13:35.252Z,996.18
2017-05-07T04:14:35.284Z,996.22
2017-05-07T04:15:35.325Z,996.21
2017-05-07T04:16:35.361Z,996.23
2017-05-07T04:17:35.394Z,996.18
2017-05-07T04:18:35.434Z,996.2
2017-05-07T04:19:35.466Z,996.2
2017-05-07T04:20:35.506Z,996.23
2017-05-07T04:21:35.540Z,996.26
2017-05-07T04:22:35.579Z,996.19
2017-05-07T04:23:35.616Z,996.22
2017-05-07T04:24:35.649Z,996.23
2017-05-07T04:25:35.691Z,996.25
2017-05-07T04:26:35.748Z,996.2
2017-05-07T04:27:35.761Z,996.24
2017-05-07T04:28:35.794Z,996.23
2017-05-07T04:29:35.832Z,996.24
2017-05-07T04:30:35.872Z,996.23
2017-05-07T04:31:35.905Z,996.22
2017-05-07T04:32:35.943Z,996.24
2017-05-07T04:33:35.981Z,996.26
2017-05-07T04:34:36.016Z,996.24
2017-05-07T04:35:36.051Z,996.28
2017-05-07T04:36:36.093Z,996.28
2017-05-07T04:37:36.124Z,996.25
2017-05-07T04:38:36.162Z,996.29
2017-05-07T04:39:36.215Z,996.32
2017-05-07T04:40:36.237Z,996.35
2017-05-07T04:41:36.273Z,996.33
2017-05-07T04:42:36.312Z,996.38
2017-05-07T04:43:36.348Z,996.36
2017-05-07T04:44:36.383Z,996.4
2017-05-07T04:45:36.422Z,996.43
2017-05-07T04:46:36.455Z,996.46
2017-05-07T04:47:36.492Z,996.47
2017-05-07T04:48:36.529Z,996.5
2017-05-07T04:49:36.569Z,996.53
2017-05-07T04:50:36.601Z,996.5
2017-05-07T04:51:36.642Z,996.56
2017-05-07T04:52:36.676Z,996.55
2017-05-07T04:53:36.715Z,996.6
2017-05-07T04:54:36.752Z,996.62
2017-05-07T04:55:36.786Z,996.67
2017-05-07T04:56:36.823Z,996.65
2017-05-07T04:57:36.862Z,996.69
2017-05-07T04:58:36.899Z,996.67
2017-05-07T04:59:36.936Z,996.68
2017-05-07T05:00:36.974Z,996.7
2017-05-07T05:01:37.006Z,996.69
2017-05-07T05:02:37.046Z,996.67
2017-05-07T05:03:37.085Z,996.7
2017-05-07T05:04:37.116Z,996.71
2017-05-07T05:05:37.156Z,996.74
2017-05-07T05:06:37.192Z,996.75
2017-05-07T05:07:37.232Z,996.79
2017-05-07T05:08:37.267Z,996.76
2017-05-07T05:09:37.300Z,996.82
2017-05-07T05:10:37.338Z,996.78
2017-05-07T05:11:37.375Z,996.82
2017-05-07T05:12:37.411Z,996.81
2017-05-07T05:13:37.448Z,996.81
2017-05-07T05:14:37.485Z,996.76
2017-05-07T05:15:37.524Z,996.83
2017-05-07T05:16:37.558Z,996.82
2017-05-07T05:17:37.596Z,996.81
2017-05-07T05:18:37.632Z,996.82
2017-05-07T05:19:37.672Z,996.82
2017-05-07T05:20:37.706Z,996.86
2017-05-07T05:21:37.743Z,996.87
2017-05-07T05:22:37.780Z,996.87
2017-05-07T05:23:37.821Z,996.89
2017-05-07T05:24:37.854Z,996.89
2017-05-07T05:25:37.892Z,996.88
2017-05-07T05:26:37.930Z,996.9
2017-05-07T05:27:37.964Z,996.91
2017-05-07T05:28:38.001Z,996.9
2017-05-07T05:29:38.041Z,996.89
2017-05-07T05:30:38.080Z,996.89
2017-05-07T05:31:38.116Z,996.93
2017-05-07T05:32:38.171Z,996.95
2017-05-07T05:33:38.191Z,996.92
2017-05-07T05:34:38.224Z,996.98
2017-05-07T05:35:38.259Z,997
2017-05-07T05:36:38.300Z,997
2017-05-07T05:37:38.337Z,996.99
2017-05-07T05:38:38.370Z,997.01
2017-05-07T05:39:38.410Z,997.02
2017-05-07T05:40:38.444Z,996.99
2017-05-07T05:41:38.480Z,996.97
2017-05-07T05:42:38.517Z,997
2017-05-07T05:43:38.558Z,996.99
2017-05-07T05:44:38.593Z,996.98
2017-05-07T05:45:38.628Z,996.99
2017-05-07T05:46:38.665Z,997.02
2017-05-07T05:47:38.705Z,997.03
2017-05-07T05:48:38.740Z,997.02
2017-05-07T05:49:38.776Z,997.03
2017-05-07T05:50:38.814Z,997.02
2017-05-07T05:51:38.854Z,997.02
2017-05-07T05:52:38.887Z,997.02
2017-05-07T05:53:38.927Z,997
2017-05-07T05:54:38.962Z,997
2017-05-07T05:55:39.002Z,997.03
2017-05-07T05:56:39.038Z,997
2017-05-07T05:57:39.072Z,997
2017-05-07T05:58:39.113Z,997.04
2017-05-07T05:59:39.146Z,997.02
2017-05-07T06:00:39.183Z,997.07
2017-05-07T06:01:39.221Z,997.08
2017-05-07T06:02:39.263Z,997.04
2017-05-07T06:03:39.298Z,997.09
2017-05-07T06:04:39.333Z,997.05
2017-05-07T06:05:39.374Z,997.07
2017-05-07T06:06:39.410Z,997.08
2017-05-07T06:07:39.445Z,997.09
2017-05-07T06:08:39.481Z,997.07
2017-05-07T06:09:39.519Z,997.09
2017-05-07T06:10:39.556Z,997.11
2017-05-07T06:11:39.597Z,997.12
2017-05-07T06:12:39.632Z,997.16
2017-05-07T06:13:39.672Z,997.15
2017-05-07T06:14:39.706Z,997.23
2017-05-07T06:15:39.744Z,997.19
2017-05-07T06:16:39.783Z,997.19
2017-05-07T06:17:39.824Z,997.18
2017-05-07T06:18:39.862Z,997.13
2017-05-07T06:19:39.899Z,997.16
2017-05-07T06:20:39.934Z,997.14
2017-05-07T06:21:39.974Z,997.14
2017-05-07T06:22:40.009Z,997.11
2017-05-07T06:23:40.050Z,997.13
2017-05-07T06:24:40.089Z,997.14
2017-05-07T06:25:40.125Z,997.18
2017-05-07T06:26:40.161Z,997.15
2017-05-07T06:27:40.202Z,997.11
2017-05-07T06:28:40.235Z,997.18
2017-05-07T06:29:40.277Z,997.19
2017-05-07T06:30:40.311Z,997.2
2017-05-07T06:31:40.353Z,997.19
2017-05-07T06:32:40.387Z,997.19
2017-05-07T06:33:40.426Z,997.18
2017-05-07T06:34:40.466Z,997.21
2017-05-07T06:35:40.501Z,997.19
2017-05-07T06:36:40.537Z,997.14
2017-05-07T06:37:40.580Z,997.12
2017-05-07T06:38:40.613Z,997.11
2017-05-07T06:39:40.655Z,997.12
2017-05-07T06:40:40.691Z,997.04
2017-05-07T06:41:40.729Z,997.07
2017-05-07T06:42:40.769Z,997.08
2017-05-07T06:43:40.803Z,997.09
2017-05-07T06:44:40.845Z,997.1
2017-05-07T06:45:40.884Z,997.09
2017-05-07T06:46:40.918Z,997.06
2017-05-07T06:47:40.958Z,997.1
2017-05-07T06:48:40.997Z,997.09
2017-05-07T06:49:41.035Z,997.09
2017-05-07T06:50:41.073Z,997.11
2017-05-07T06:51:41.111Z,997.08
2017-05-07T06:52:41.146Z,997.07
2017-05-07T06:53:41.185Z,997.09
2017-05-07T06:54:41.222Z,997.09
2017-05-07T06:55:41.269Z,997.1
2017-05-07T06:56:41.302Z,997.09
2017-05-07T06:57:41.336Z,997.09
2017-05-07T06:58:41.377Z,997.08
2017-05-07T06:59:41.415Z,997.1
2017-05-07T07:00:41.454Z,997.13
2017-05-07T07:01:41.490Z,997.12
2017-05-07T07:02:41.525Z,997.12
2017-05-07T07:03:41.567Z,997.17
2017-05-07T07:04:41.602Z,997.17
2017-05-07T07:05:41.642Z,997.16
2017-05-07T07:06:41.680Z,997.17
2017-05-07T07:07:41.749Z,997.19
2017-05-07T07:08:41.757Z,997.22
2017-05-07T07:09:41.791Z,997.23
2017-05-07T07:10:41.831Z,997.22
2017-05-07T07:11:41.901Z,997.27
2017-05-07T07:12:41.915Z,997.28
2017-05-07T07:13:41.948Z,997.26
2017-05-07T07:14:41.983Z,997.32
2017-05-07T07:15:42.022Z,997.3
2017-05-07T07:16:42.058Z,997.31
2017-05-07T07:17:42.097Z,997.29
2017-05-07T07:18:42.139Z,997.29
2017-05-07T07:19:42.178Z,997.28
2017-05-07T07:20:42.213Z,997.34
2017-05-07T07:21:42.255Z,997.35
2017-05-07T07:22:42.290Z,997.35
2017-05-07T07:23:42.332Z,997.33
2017-05-07T07:24:42.370Z,997.35
2017-05-07T07:25:42.406Z,997.37
2017-05-07T07:26:42.448Z,997.34
2017-05-07T07:27:42.482Z,997.37
2017-05-07T07:28:42.521Z,997.36
2017-05-07T07:29:42.563Z,997.39
2017-05-07T07:30:42.601Z,997.39
2017-05-07T07:31:42.641Z,997.37
2017-05-07T07:32:42.680Z,997.4
2017-05-07T07:33:42.716Z,997.41
2017-05-07T07:34:42.755Z,997.42
2017-05-07T07:35:42.793Z,997.44
2017-05-07T07:36:42.835Z,997.46
2017-05-07T07:37:42.874Z,997.47
2017-05-07T07:38:42.909Z,997.47
2017-05-07T07:39:42.949Z,997.45
2017-05-07T07:40:42.993Z,997.47
2017-05-07T07:41:43.034Z,997.49
2017-05-07T07:42:43.068Z,997.47
2017-05-07T07:43:43.103Z,997.5
2017-05-07T07:44:43.147Z,997.53
2017-05-07T07:45:43.184Z,997.53
2017-05-07T07:46:43.221Z,997.54
2017-05-07T07:47:43.260Z,997.6
2017-05-07T07:48:43.299Z,997.6
2017-05-07T07:49:43.341Z,997.59
2017-05-07T07:50:43.380Z,997.57
2017-05-07T07:51:43.420Z,997.57
2017-05-07T07:52:43.455Z,997.6
2017-05-07T07:53:43.498Z,997.6
2017-05-07T07:54:43.534Z,997.62
2017-05-07T07:55:43.576Z,997.61
2017-05-07T07:56:43.611Z,997.61
2017-05-07T07:57:43.651Z,997.63
2017-05-07T07:58:43.697Z,997.62
2017-05-07T07:59:43.733Z,997.63
2017-05-07T08:00:43.768Z,997.63
2017-05-07T08:01:43.811Z,997.67
2017-05-07T08:02:43.851Z,997.59
2017-05-07T08:03:43.888Z,997.6
2017-05-07T08:04:43.924Z,997.65
2017-05-07T08:05:43.967Z,997.68
2017-05-07T08:06:44.003Z,997.67
2017-05-07T08:07:44.042Z,997.69
2017-05-07T08:08:44.091Z,997.68
2017-05-07T08:09:44.120Z,997.71
2017-05-07T08:10:44.160Z,997.71
2017-05-07T08:11:44.201Z,997.75
2017-05-07T08:12:44.238Z,997.75
2017-05-07T08:13:44.282Z,997.76
2017-05-07T08:14:44.315Z,997.76
2017-05-07T08:15:44.355Z,997.76
2017-05-07T08:16:44.398Z,997.79
2017-05-07T08:17:44.434Z,997.8
2017-05-07T08:18:44.472Z,997.83
2017-05-07T08:19:44.516Z,997.8
2017-05-07T08:20:44.552Z,997.83
2017-05-07T08:21:44.596Z,997.83
2017-05-07T08:22:44.630Z,997.87
2017-05-07T08:23:44.677Z,997.88
2017-05-07T08:24:44.715Z,997.86
2017-05-07T08:25:44.749Z,997.88
2017-05-07T08:26:44.791Z,997.86
2017-05-07T08:27:44.828Z,997.89
2017-05-07T08:28:44.868Z,997.88
2017-05-07T08:29:44.911Z,997.8
2017-05-07T08:30:44.947Z,997.81
2017-05-07T08:31:44.991Z,997.82
2017-05-07T08:32:45.030Z,997.85
2017-05-07T08:33:45.068Z,997.88
2017-05-07T08:34:45.105Z,997.79
2017-05-07T08:35:45.145Z,997.77
2017-05-07T08:36:45.183Z,997.81
2017-05-07T08:37:45.227Z,997.81
2017-05-07T08:38:45.265Z,997.81
2017-05-07T08:39:45.304Z,997.83
2017-05-07T08:40:45.344Z,997.83
2017-05-07T08:41:45.387Z,997.83
2017-05-07T08:42:45.425Z,997.83
2017-05-07T08:43:45.468Z,997.84
2017-05-07T08:44:45.505Z,997.82
2017-05-07T08:45:45.543Z,997.84
2017-05-07T08:46:45.585Z,997.87
2017-05-07T08:47:45.624Z,997.9
2017-05-07T08:48:45.671Z,997.86
2017-05-07T08:49:45.715Z,997.87
2017-05-07T08:50:45.750Z,997.89
2017-05-07T08:51:45.786Z,997.88
2017-05-07T08:52:45.830Z,997.9
2017-05-07T08:53:45.871Z,997.92
2017-05-07T08:54:45.907Z,997.9
2017-05-07T08:55:45.951Z,997.88
2017-05-07T08:56:45.990Z,997.91
2017-05-07T08:57:46.035Z,997.87
2017-05-07T08:58:46.073Z,997.9
2017-05-07T08:59:46.111Z,997.88
2017-05-07T09:00:46.155Z,997.92
2017-05-07T09:01:46.193Z,997.9
2017-05-07T09:02:46.240Z,997.94
2017-05-07T09:03:46.275Z,997.97
2017-05-07T09:04:46.316Z,997.94
2017-05-07T09:05:46.369Z,997.98
2017-05-07T09:06:46.402Z,998.01
2017-05-07T09:07:46.442Z,997.95
2017-05-07T09:08:46.481Z,997.96
2017-05-07T09:09:46.524Z,997.94
2017-05-07T09:10:46.565Z,997.94
2017-05-07T09:11:46.607Z,997.95
2017-05-07T09:12:46.649Z,997.92
2017-05-07T09:13:46.685Z,997.96
2017-05-07T09:14:46.731Z,997.91
2017-05-07T09:15:46.768Z,997.93
2017-05-07T09:16:46.813Z,997.99
2017-05-07T09:17:46.852Z,997.98
2017-05-07T09:18:46.891Z,998.04
2017-05-07T09:19:46.932Z,998
2017-05-07T09:20:46.972Z,998.04
2017-05-07T09:21:47.022Z,998.03
2017-05-07T09:22:47.058Z,998.01
2017-05-07T09:23:47.094Z,998.03
2017-05-07T09:24:47.138Z,998.05
2017-05-07T09:25:47.174Z,998.05
2017-05-07T09:26:47.219Z,998.11
2017-05-07T09:27:47.259Z,998.04
2017-05-07T09:28:47.296Z,998.1
2017-05-07T09:29:47.340Z,998.1
2017-05-07T09:30:47.378Z,998.14
2017-05-07T09:31:47.422Z,998.1
2017-05-07T09:32:47.460Z,998.14
2017-05-07T09:33:47.496Z,998.07
2017-05-07T09:34:47.537Z,998.09
2017-05-07T09:35:47.580Z,998.09
2017-05-07T09:36:47.620Z,998.08
2017-05-07T09:37:47.657Z,998.12
2017-05-07T09:38:47.696Z,998.1
2017-05-07T09:39:47.737Z,998.1
2017-05-07T09:40:47.778Z,998.15
2017-05-07T09:41:47.822Z,998.14
2017-05-07T09:42:47.858Z,998.08
2017-05-07T09:43:47.901Z,998.16
2017-05-07T09:44:47.942Z,998.16
2017-05-07T09:45:47.978Z,998.18
2017-05-07T09:46:48.021Z,998.19
2017-05-07T09:47:48.062Z,998.19
2017-05-07T09:48:48.099Z,998.16
2017-05-07T09:49:48.139Z,998.19
2017-05-07T09:50:48.182Z,998.18
2017-05-07T09:51:48.220Z,998.17
2017-05-07T09:52:48.262Z,998.18
2017-05-07T09:53:48.304Z,998.19
2017-05-07T09:54:48.344Z,998.21
2017-05-07T09:55:48.385Z,998.23
2017-05-07T09:56:48.425Z,998.2
2017-05-07T09:57:48.467Z,998.27
2017-05-07T09:58:48.508Z,998.24
2017-05-07T09:59:48.545Z,998.24
2017-05-07T10:00:48.585Z,998.23
2017-05-07T10:01:48.627Z,998.22
2017-05-07T10:02:48.667Z,998.19
2017-05-07T10:03:48.709Z,998.23
2017-05-07T10:04:48.752Z,998.25
2017-05-07T10:05:48.793Z,998.28
2017-05-07T10:06:48.832Z,998.31
2017-05-07T10:07:48.877Z,998.32
2017-05-07T10:08:48.917Z,998.32
2017-05-07T10:09:48.956Z,998.31
2017-05-07T10:10:49.000Z,998.37
2017-05-07T10:11:49.040Z,998.42
2017-05-07T10:12:49.083Z,998.42
2017-05-07T10:13:49.121Z,998.39
2017-05-07T10:14:49.164Z,998.42
2017-05-07T10:15:49.206Z,998.38
2017-05-07T10:16:49.246Z,998.38
2017-05-07T10:17:49.291Z,998.4
2017-05-07T10:18:49.332Z,998.39
2017-05-07T10:19:49.371Z,998.37
2017-05-07T10:20:49.413Z,998.41
2017-05-07T10:21:49.458Z,998.42
2017-05-07T10:22:49.496Z,998.42
2017-05-07T10:23:49.536Z,998.46
2017-05-07T10:24:49.583Z,998.44
2017-05-07T10:25:49.625Z,998.4
2017-05-07T10:26:49.666Z,998.39
2017-05-07T10:27:49.708Z,998.41
2017-05-07T10:28:49.753Z,998.44
2017-05-07T10:29:49.793Z,998.37
2017-05-07T10:30:49.831Z,998.4
2017-05-07T10:31:49.877Z,998.36
2017-05-07T10:32:49.921Z,998.4
2017-05-07T10:33:49.961Z,998.33
2017-05-07T10:34:50.004Z,998.29
2017-05-07T10:35:50.048Z,998.29
2017-05-07T10:36:50.091Z,998.27
2017-05-07T10:37:50.138Z,998.28
2017-05-07T10:38:50.182Z,998.3
2017-05-07T10:39:50.225Z,998.27
2017-05-07T10:40:50.269Z,998.25
2017-05-07T10:41:50.331Z,998.33
2017-05-07T10:42:50.355Z,998.22
2017-05-07T10:43:50.397Z,998.27
2017-05-07T10:44:50.443Z,998.26
2017-05-07T10:45:50.487Z,998.23
2017-05-07T10:46:50.528Z,998.25
2017-05-07T10:47:50.575Z,998.21
2017-05-07T10:48:50.616Z,998.22
2017-05-07T10:49:50.661Z,998.22
2017-05-07T10:50:50.705Z,998.23
2017-05-07T10:51:50.748Z,998.21
2017-05-07T10:52:50.791Z,998.25
2017-05-07T10:53:50.835Z,998.23
2017-05-07T10:54:50.877Z,998.24
2017-05-07T10:55:50.921Z,998.19
2017-05-07T10:56:50.961Z,998.26
2017-05-07T10:57:51.005Z,998.23
2017-05-07T10:58:51.050Z,998.2
2017-05-07T10:59:51.095Z,998.2
2017-05-07T11:00:51.136Z,998.29
2017-05-07T11:01:51.184Z,998.36
2017-05-07T11:02:51.224Z,998.35
2017-05-07T11:03:51.272Z,998.24
2017-05-07T11:04:51.314Z,998.25
2017-05-07T11:05:51.363Z,998.23
2017-05-07T11:06:51.405Z,998.2
2017-05-07T11:07:51.446Z,998.19
2017-05-07T11:08:51.495Z,998.18
2017-05-07T11:09:51.536Z,998.19
2017-05-07T11:10:51.579Z,998.13
2017-05-07T11:11:51.638Z,998.16
2017-05-07T11:12:51.668Z,998.16
2017-05-07T11:13:51.715Z,998.1
2017-05-07T11:14:51.756Z,998.14
2017-05-07T11:15:51.803Z,998.15
2017-05-07T11:16:51.845Z,998.11
2017-05-07T11:17:51.890Z,998.11
2017-05-07T11:18:51.931Z,998.14
2017-05-07T11:19:51.976Z,998.04
2017-05-07T11:20:52.023Z,998.04
2017-05-07T11:21:52.066Z,998.04
2017-05-07T11:22:52.106Z,998.05
2017-05-07T11:23:52.154Z,998
2017-05-07T11:24:52.198Z,998.01
2017-05-07T11:25:52.242Z,998.01
2017-05-07T11:26:52.286Z,997.98
2017-05-07T11:27:52.326Z,997.98
2017-05-07T11:28:52.369Z,997.97
2017-05-07T11:29:52.418Z,997.93
2017-05-07T11:30:52.457Z,997.95
2017-05-07T11:31:52.502Z,997.97
2017-05-07T11:32:52.544Z,998
2017-05-07T11:33:52.591Z,997.94
2017-05-07T11:34:52.633Z,997.91
2017-05-07T11:35:52.681Z,997.9
2017-05-07T11:36:52.722Z,997.91
2017-05-07T11:37:52.764Z,997.91
2017-05-07T11:38:52.810Z,997.89
2017-05-07T11:39:52.852Z,997.91
2017-05-07T11:40:52.895Z,997.9
2017-05-07T11:41:52.938Z,997.9
2017-05-07T11:42:52.981Z,997.92
2017-05-07T11:43:53.023Z,997.89
2017-05-07T11:44:53.071Z,997.9
2017-05-07T11:45:53.110Z,997.87
2017-05-07T11:46:53.151Z,997.86
2017-05-07T11:47:53.192Z,997.85
2017-05-07T11:48:53.236Z,997.84
2017-05-07T11:49:53.287Z,997.83
2017-05-07T11:50:53.319Z,997.83
2017-05-07T11:51:53.368Z,997.75
2017-05-07T11:52:53.407Z,997.76
2017-05-07T11:53:53.446Z,997.76
2017-05-07T11:54:53.491Z,997.79
2017-05-07T11:55:53.532Z,997.82
2017-05-07T11:56:53.576Z,997.78
2017-05-07T11:57:53.622Z,997.74
2017-05-07T11:58:53.657Z,997.73
2017-05-07T11:59:53.701Z,997.69
2017-05-07T12:00:53.745Z,997.74
2017-05-07T12:01:53.785Z,997.71
2017-05-07T12:02:53.826Z,997.71
2017-05-07T12:03:53.870Z,997.69
2017-05-07T12:04:53.913Z,997.66
2017-05-07T12:05:53.956Z,997.66
2017-05-07T12:06:53.998Z,997.67
2017-05-07T12:07:54.041Z,997.66
2017-05-07T12:08:54.080Z,997.61
2017-05-07T12:09:54.124Z,997.59
2017-05-07T12:10:54.169Z,997.61
2017-05-07T12:11:54.208Z,997.63
2017-05-07T12:12:54.247Z,997.65
2017-05-07T12:13:54.292Z,997.62
2017-05-07T12:14:54.335Z,997.7
2017-05-07T12:15:54.374Z,997.6
2017-05-07T12:16:54.415Z,997.62
2017-05-07T12:17:54.457Z,997.64
2017-05-07T12:18:54.499Z,997.6
2017-05-07T12:19:54.544Z,997.61
2017-05-07T12:20:54.582Z,997.59
2017-05-07T12:21:54.625Z,997.58
2017-05-07T12:22:54.666Z,997.57
2017-05-07T12:23:54.712Z,997.56
2017-05-07T12:24:54.750Z,997.57
2017-05-07T12:25:54.797Z,997.59
2017-05-07T12:26:54.836Z,997.6
2017-05-07T12:27:54.879Z,997.55
2017-05-07T12:28:54.919Z,997.59
2017-05-07T12:29:54.964Z,997.59
2017-05-07T12:30:55.003Z,997.54
2017-05-07T12:31:55.045Z,997.55
2017-05-07T12:32:55.087Z,997.54